sensor_id;sensor_type;location;lat;lon;timestamp;temperature;humidity
78315;SHT31;68596;52.080;4.662;2023-07-22T00:01:24;17.64;74.31
78315;SHT31;68596;52.080;4.662;2023-07-22T00:04:08;17.63;74.33
78315;SHT31;68596;52.080;4.662;2023-07-22T00:06:52;17.61;74.30
78315;SHT31;68596;52.080;4.662;2023-07-22T00:09:36;17.61;74.30
78315;SHT31;68596;52.080;4.662;2023-07-22T00:12:20;17.60;74.28
78315;SHT31;68596;52.080;4.662;2023-07-22T00:15:08;17.63;74.19
78315;SHT31;68596;52.080;4.662;2023-07-22T00:17:55;17.61;74.18
78315;SHT31;68596;52.080;4.662;2023-07-22T00:20:39;17.61;74.51
78315;SHT31;68596;52.080;4.662;2023-07-22T00:23:23;17.60;74.49
78315;SHT31;68596;52.080;4.662;2023-07-22T00:26:08;17.59;74.41
78315;SHT31;68596;52.080;4.662;2023-07-22T00:28:53;17.54;74.48
78315;SHT31;68596;52.080;4.662;2023-07-22T00:31:37;17.55;74.43
78315;SHT31;68596;52.080;4.662;2023-07-22T00:34:21;17.55;74.80
78315;SHT31;68596;52.080;4.662;2023-07-22T00:37:07;17.57;74.35
78315;SHT31;68596;52.080;4.662;2023-07-22T00:39:51;17.55;74.46
78315;SHT31;68596;52.080;4.662;2023-07-22T00:42:35;17.55;74.36
78315;SHT31;68596;52.080;4.662;2023-07-22T00:45:19;17.54;74.44
78315;SHT31;68596;52.080;4.662;2023-07-22T00:48:05;17.55;74.55
78315;SHT31;68596;52.080;4.662;2023-07-22T00:50:50;17.53;74.83
78315;SHT31;68596;52.080;4.662;2023-07-22T00:53:34;17.50;74.89
78315;SHT31;68596;52.080;4.662;2023-07-22T00:56:19;17.46;74.69
78315;SHT31;68596;52.080;4.662;2023-07-22T00:59:04;17.49;74.63
78315;SHT31;68596;52.080;4.662;2023-07-22T01:01:49;17.49;74.71
78315;SHT31;68596;52.080;4.662;2023-07-22T01:04:34;17.46;74.56
78315;SHT31;68596;52.080;4.662;2023-07-22T01:07:19;17.44;74.46
78315;SHT31;68596;52.080;4.662;2023-07-22T01:10:04;17.41;74.65
78315;SHT31;68596;52.080;4.662;2023-07-22T01:12:49;17.41;74.83
78315;SHT31;68596;52.080;4.662;2023-07-22T01:15:33;17.39;74.48
78315;SHT31;68596;52.080;4.662;2023-07-22T01:18:18;17.40;74.48
78315;SHT31;68596;52.080;4.662;2023-07-22T01:21:03;17.41;74.47
78315;SHT31;68596;52.080;4.662;2023-07-22T01:23:49;17.44;74.68
78315;SHT31;68596;52.080;4.662;2023-07-22T01:26:33;17.46;74.68
78315;SHT31;68596;52.080;4.662;2023-07-22T01:29:17;17.46;74.64
78315;SHT31;68596;52.080;4.662;2023-07-22T01:32:01;17.46;74.43
78315;SHT31;68596;52.080;4.662;2023-07-22T01:34:45;17.46;74.56
78315;SHT31;68596;52.080;4.662;2023-07-22T01:37:30;17.47;74.48
78315;SHT31;68596;52.080;4.662;2023-07-22T01:40:16;17.46;74.43
78315;SHT31;68596;52.080;4.662;2023-07-22T01:43:00;17.41;74.51
78315;SHT31;68596;52.080;4.662;2023-07-22T01:45:44;17.46;74.52
78315;SHT31;68596;52.080;4.662;2023-07-22T01:48:28;17.46;74.64
78315;SHT31;68596;52.080;4.662;2023-07-22T01:51:12;17.44;74.63
78315;SHT31;68596;52.080;4.662;2023-07-22T01:53:56;17.44;74.55
78315;SHT31;68596;52.080;4.662;2023-07-22T01:56:40;17.49;74.60
78315;SHT31;68596;52.080;4.662;2023-07-22T01:59:27;17.47;74.44
78315;SHT31;68596;52.080;4.662;2023-07-22T02:02:12;17.49;74.50
78315;SHT31;68596;52.080;4.662;2023-07-22T02:04:56;17.46;74.53
78315;SHT31;68596;52.080;4.662;2023-07-22T02:07:40;17.50;74.42
78315;SHT31;68596;52.080;4.662;2023-07-22T02:10:24;17.47;74.47
78315;SHT31;68596;52.080;4.662;2023-07-22T02:13:08;17.49;74.31
78315;SHT31;68596;52.080;4.662;2023-07-22T02:15:53;17.47;74.15
78315;SHT31;68596;52.080;4.662;2023-07-22T02:18:38;17.46;74.18
78315;SHT31;68596;52.080;4.662;2023-07-22T02:21:22;17.44;74.24
78315;SHT31;68596;52.080;4.662;2023-07-22T02:24:06;17.43;74.23
78315;SHT31;68596;52.080;4.662;2023-07-22T02:26:50;17.41;74.26
78315;SHT31;68596;52.080;4.662;2023-07-22T02:29:34;17.41;74.20
78315;SHT31;68596;52.080;4.662;2023-07-22T02:32:18;17.39;74.29
78315;SHT31;68596;52.080;4.662;2023-07-22T02:35:02;17.36;74.30
78315;SHT31;68596;52.080;4.662;2023-07-22T02:37:47;17.37;74.24
78315;SHT31;68596;52.080;4.662;2023-07-22T02:40:34;17.36;74.22
78315;SHT31;68596;52.080;4.662;2023-07-22T02:43:18;17.36;74.26
78315;SHT31;68596;52.080;4.662;2023-07-22T02:46:04;17.33;74.11
78315;SHT31;68596;52.080;4.662;2023-07-22T02:48:49;17.31;74.15
78315;SHT31;68596;52.080;4.662;2023-07-22T02:51:33;17.27;74.14
78315;SHT31;68596;52.080;4.662;2023-07-22T02:54:17;17.29;74.23
78315;SHT31;68596;52.080;4.662;2023-07-22T02:57:01;17.27;74.22
78315;SHT31;68596;52.080;4.662;2023-07-22T02:59:45;17.27;74.22
78315;SHT31;68596;52.080;4.662;2023-07-22T03:02:29;17.23;74.17
78315;SHT31;68596;52.080;4.662;2023-07-22T03:05:14;17.22;74.15
78315;SHT31;68596;52.080;4.662;2023-07-22T03:07:58;17.23;74.25
78315;SHT31;68596;52.080;4.662;2023-07-22T03:10:42;17.19;74.44
78315;SHT31;68596;52.080;4.662;2023-07-22T03:13:32;17.20;74.39
78315;SHT31;68596;52.080;4.662;2023-07-22T03:16:18;17.22;74.26
78315;SHT31;68596;52.080;4.662;2023-07-22T03:19:01;17.23;74.46
78315;SHT31;68596;52.080;4.662;2023-07-22T03:21:46;17.22;74.24
78315;SHT31;68596;52.080;4.662;2023-07-22T03:24:30;17.26;74.25
78315;SHT31;68596;52.080;4.662;2023-07-22T03:27:14;17.23;74.36
78315;SHT31;68596;52.080;4.662;2023-07-22T03:30:00;17.22;74.46
78315;SHT31;68596;52.080;4.662;2023-07-22T03:32:46;17.22;74.39
78315;SHT31;68596;52.080;4.662;2023-07-22T03:35:33;17.22;74.45
78315;SHT31;68596;52.080;4.662;2023-07-22T03:38:17;17.20;74.40
78315;SHT31;68596;52.080;4.662;2023-07-22T03:41:01;17.19;74.35
78315;SHT31;68596;52.080;4.662;2023-07-22T03:43:47;17.19;74.44
78315;SHT31;68596;52.080;4.662;2023-07-22T03:46:31;17.20;74.42
78315;SHT31;68596;52.080;4.662;2023-07-22T03:49:16;17.22;74.37
78315;SHT31;68596;52.080;4.662;2023-07-22T03:52:00;17.20;74.41
78315;SHT31;68596;52.080;4.662;2023-07-22T03:54:44;17.23;74.47
78315;SHT31;68596;52.080;4.662;2023-07-22T03:57:29;17.22;74.30
78315;SHT31;68596;52.080;4.662;2023-07-22T04:00:17;17.20;74.42
78315;SHT31;68596;52.080;4.662;2023-07-22T04:03:01;17.22;74.36
78315;SHT31;68596;52.080;4.662;2023-07-22T04:05:54;17.23;74.63
78315;SHT31;68596;52.080;4.662;2023-07-22T04:08:38;17.20;74.34
78315;SHT31;68596;52.080;4.662;2023-07-22T04:11:22;17.20;74.55
78315;SHT31;68596;52.080;4.662;2023-07-22T04:14:06;17.23;74.60
78315;SHT31;68596;52.080;4.662;2023-07-22T04:16:50;17.20;74.22
78315;SHT31;68596;52.080;4.662;2023-07-22T04:19:34;17.24;74.29
78315;SHT31;68596;52.080;4.662;2023-07-22T04:22:20;17.24;74.28
78315;SHT31;68596;52.080;4.662;2023-07-22T04:25:05;17.26;74.34
78315;SHT31;68596;52.080;4.662;2023-07-22T04:27:49;17.23;74.27
78315;SHT31;68596;52.080;4.662;2023-07-22T04:30:34;17.26;74.34
78315;SHT31;68596;52.080;4.662;2023-07-22T04:33:19;17.26;74.30
78315;SHT31;68596;52.080;4.662;2023-07-22T04:36:03;17.26;74.47
78315;SHT31;68596;52.080;4.662;2023-07-22T04:38:47;17.27;74.58
78315;SHT31;68596;52.080;4.662;2023-07-22T04:41:31;17.31;74.74
78315;SHT31;68596;52.080;4.662;2023-07-22T04:44:16;17.30;74.91
78315;SHT31;68596;52.080;4.662;2023-07-22T04:47:01;17.31;74.81
78315;SHT31;68596;52.080;4.662;2023-07-22T04:49:45;17.33;74.78
78315;SHT31;68596;52.080;4.662;2023-07-22T04:52:30;17.36;75.14
78315;SHT31;68596;52.080;4.662;2023-07-22T04:55:14;17.37;75.00
78315;SHT31;68596;52.080;4.662;2023-07-22T04:57:58;17.40;75.35
78315;SHT31;68596;52.080;4.662;2023-07-22T05:00:42;17.41;75.58
78315;SHT31;68596;52.080;4.662;2023-07-22T05:03:27;17.44;75.88
78315;SHT31;68596;52.080;4.662;2023-07-22T05:06:11;17.44;75.72
78315;SHT31;68596;52.080;4.662;2023-07-22T05:08:55;17.46;76.17
78315;SHT31;68596;52.080;4.662;2023-07-22T05:11:39;17.49;76.03
78315;SHT31;68596;52.080;4.662;2023-07-22T05:14:23;17.50;76.42
78315;SHT31;68596;52.080;4.662;2023-07-22T05:17:07;17.54;76.43
78315;SHT31;68596;52.080;4.662;2023-07-22T05:19:51;17.55;77.00
78315;SHT31;68596;52.080;4.662;2023-07-22T05:22:36;17.60;76.60
78315;SHT31;68596;52.080;4.662;2023-07-22T05:25:21;17.61;76.85
78315;SHT31;68596;52.080;4.662;2023-07-22T05:28:05;17.64;76.90
78315;SHT31;68596;52.080;4.662;2023-07-22T05:30:49;17.63;76.96
78315;SHT31;68596;52.080;4.662;2023-07-22T05:33:34;17.66;77.34
78315;SHT31;68596;52.080;4.662;2023-07-22T05:36:18;17.68;77.25
78315;SHT31;68596;52.080;4.662;2023-07-22T05:39:02;17.73;77.20
78315;SHT31;68596;52.080;4.662;2023-07-22T05:41:46;17.77;77.01
78315;SHT31;68596;52.080;4.662;2023-07-22T05:44:30;17.78;77.40
78315;SHT31;68596;52.080;4.662;2023-07-22T05:47:14;17.84;77.38
78315;SHT31;68596;52.080;4.662;2023-07-22T05:49:59;17.85;77.24
78315;SHT31;68596;52.080;4.662;2023-07-22T05:52:43;17.87;77.06
78315;SHT31;68596;52.080;4.662;2023-07-22T05:55:27;17.88;77.58
78315;SHT31;68596;52.080;4.662;2023-07-22T05:58:16;17.95;77.48
78315;SHT31;68596;52.080;4.662;2023-07-22T06:01:01;17.98;77.69
78315;SHT31;68596;52.080;4.662;2023-07-22T06:03:45;18.01;77.59
78315;SHT31;68596;52.080;4.662;2023-07-22T06:06:30;18.04;77.41
78315;SHT31;68596;52.080;4.662;2023-07-22T06:09:14;18.08;77.49
78315;SHT31;68596;52.080;4.662;2023-07-22T06:11:59;18.08;77.37
78315;SHT31;68596;52.080;4.662;2023-07-22T06:14:44;18.11;77.54
78315;SHT31;68596;52.080;4.662;2023-07-22T06:17:28;18.12;77.55
78315;SHT31;68596;52.080;4.662;2023-07-22T06:20:12;18.16;77.38
78315;SHT31;68596;52.080;4.662;2023-07-22T06:22:56;18.19;77.45
78315;SHT31;68596;52.080;4.662;2023-07-22T06:25:40;18.25;77.44
78315;SHT31;68596;52.080;4.662;2023-07-22T06:28:24;18.26;77.25
78315;SHT31;68596;52.080;4.662;2023-07-22T06:31:08;18.31;77.29
78315;SHT31;68596;52.080;4.662;2023-07-22T06:33:52;18.32;77.38
78315;SHT31;68596;52.080;4.662;2023-07-22T06:36:36;18.36;77.35
78315;SHT31;68596;52.080;4.662;2023-07-22T06:39:20;18.38;77.38
78315;SHT31;68596;52.080;4.662;2023-07-22T06:42:05;18.39;77.17
78315;SHT31;68596;52.080;4.662;2023-07-22T06:44:49;18.41;77.17
78315;SHT31;68596;52.080;4.662;2023-07-22T06:47:34;18.43;76.99
78315;SHT31;68596;52.080;4.662;2023-07-22T06:50:18;18.46;77.20
78315;SHT31;68596;52.080;4.662;2023-07-22T06:53:02;18.49;76.98
78315;SHT31;68596;52.080;4.662;2023-07-22T06:55:49;18.56;76.82
78315;SHT31;68596;52.080;4.662;2023-07-22T06:58:34;18.60;76.85
78315;SHT31;68596;52.080;4.662;2023-07-22T07:01:18;18.62;76.78
78315;SHT31;68596;52.080;4.662;2023-07-22T07:04:02;18.64;76.76
78315;SHT31;68596;52.080;4.662;2023-07-22T07:06:46;18.66;76.91
78315;SHT31;68596;52.080;4.662;2023-07-22T07:09:30;18.67;76.98
78315;SHT31;68596;52.080;4.662;2023-07-22T07:12:14;18.73;76.90
78315;SHT31;68596;52.080;4.662;2023-07-22T07:14:58;18.76;76.80
78315;SHT31;68596;52.080;4.662;2023-07-22T07:17:42;18.86;76.49
78315;SHT31;68596;52.080;4.662;2023-07-22T07:20:26;18.90;76.29
78315;SHT31;68596;52.080;4.662;2023-07-22T07:23:12;18.90;76.33
78315;SHT31;68596;52.080;4.662;2023-07-22T07:25:56;18.92;76.30
78315;SHT31;68596;52.080;4.662;2023-07-22T07:28:41;18.96;76.40
78315;SHT31;68596;52.080;4.662;2023-07-22T07:31:25;18.96;76.32
78315;SHT31;68596;52.080;4.662;2023-07-22T07:34:09;18.99;76.33
78315;SHT31;68596;52.080;4.662;2023-07-22T07:36:53;19.02;76.37
78315;SHT31;68596;52.080;4.662;2023-07-22T07:39:37;19.04;75.86
78315;SHT31;68596;52.080;4.662;2023-07-22T07:42:21;19.08;75.89
78315;SHT31;68596;52.080;4.662;2023-07-22T07:45:06;19.08;75.95
78315;SHT31;68596;52.080;4.662;2023-07-22T07:47:50;19.11;75.87
78315;SHT31;68596;52.080;4.662;2023-07-22T07:50:34;19.14;75.84
78315;SHT31;68596;52.080;4.662;2023-07-22T07:53:18;19.17;75.89
78315;SHT31;68596;52.080;4.662;2023-07-22T07:56:03;19.24;75.62
78315;SHT31;68596;52.080;4.662;2023-07-22T07:58:50;19.28;75.69
78315;SHT31;68596;52.080;4.662;2023-07-22T08:01:34;19.32;75.84
78315;SHT31;68596;52.080;4.662;2023-07-22T08:04:19;19.32;75.42
78315;SHT31;68596;52.080;4.662;2023-07-22T08:07:06;19.37;75.24
78315;SHT31;68596;52.080;4.662;2023-07-22T08:09:50;19.41;74.81
78315;SHT31;68596;52.080;4.662;2023-07-22T08:12:34;19.45;75.26
78315;SHT31;68596;52.080;4.662;2023-07-22T08:15:19;19.50;74.64
78315;SHT31;68596;52.080;4.662;2023-07-22T08:18:03;19.53;74.04
78315;SHT31;68596;52.080;4.662;2023-07-22T08:20:47;19.55;74.16
78315;SHT31;68596;52.080;4.662;2023-07-22T08:23:31;19.59;73.06
78315;SHT31;68596;52.080;4.662;2023-07-22T08:26:16;19.62;72.85
78315;SHT31;68596;52.080;4.662;2023-07-22T08:29:04;19.62;73.16
78315;SHT31;68596;52.080;4.662;2023-07-22T08:31:48;19.61;73.21
78315;SHT31;68596;52.080;4.662;2023-07-22T08:34:33;19.68;73.19
78315;SHT31;68596;52.080;4.662;2023-07-22T08:37:17;19.68;73.15
78315;SHT31;68596;52.080;4.662;2023-07-22T08:40:01;19.71;73.06
78315;SHT31;68596;52.080;4.662;2023-07-22T08:42:46;19.71;72.95
78315;SHT31;68596;52.080;4.662;2023-07-22T08:45:32;19.71;73.05
78315;SHT31;68596;52.080;4.662;2023-07-22T08:48:18;19.72;72.67
78315;SHT31;68596;52.080;4.662;2023-07-22T08:51:18;19.72;72.46
78315;SHT31;68596;52.080;4.662;2023-07-22T08:54:03;19.72;72.17
78315;SHT31;68596;52.080;4.662;2023-07-22T08:56:48;19.72;71.45
78315;SHT31;68596;52.080;4.662;2023-07-22T08:59:33;19.72;71.52
78315;SHT31;68596;52.080;4.662;2023-07-22T09:02:18;19.74;71.67
78315;SHT31;68596;52.080;4.662;2023-07-22T09:05:02;19.72;70.98
78315;SHT31;68596;52.080;4.662;2023-07-22T09:07:47;19.69;71.27
78315;SHT31;68596;52.080;4.662;2023-07-22T09:10:33;19.72;71.58
78315;SHT31;68596;52.080;4.662;2023-07-22T09:13:18;19.74;71.62
78315;SHT31;68596;52.080;4.662;2023-07-22T09:16:03;19.74;71.57
78315;SHT31;68596;52.080;4.662;2023-07-22T09:18:48;19.77;71.06
78315;SHT31;68596;52.080;4.662;2023-07-22T09:21:32;19.79;71.01
78315;SHT31;68596;52.080;4.662;2023-07-22T09:24:22;19.81;71.10
78315;SHT31;68596;52.080;4.662;2023-07-22T09:27:07;19.82;71.27
78315;SHT31;68596;52.080;4.662;2023-07-22T09:29:51;19.86;70.88
78315;SHT31;68596;52.080;4.662;2023-07-22T09:32:36;19.88;69.48
78315;SHT31;68596;52.080;4.662;2023-07-22T09:35:26;19.86;70.11
78315;SHT31;68596;52.080;4.662;2023-07-22T09:38:10;19.90;68.84
78315;SHT31;68596;52.080;4.662;2023-07-22T09:40:54;19.89;69.08
78315;SHT31;68596;52.080;4.662;2023-07-22T09:43:38;19.90;69.37
78315;SHT31;68596;52.080;4.662;2023-07-22T09:46:31;19.88;69.56
78315;SHT31;68596;52.080;4.662;2023-07-22T09:49:18;19.88;69.35
78315;SHT31;68596;52.080;4.662;2023-07-22T09:52:09;19.85;69.96
78315;SHT31;68596;52.080;4.662;2023-07-22T09:54:58;19.85;70.63
78315;SHT31;68596;52.080;4.662;2023-07-22T09:57:44;19.83;70.94
78315;SHT31;68596;52.080;4.662;2023-07-22T10:00:31;19.77;71.16
78315;SHT31;68596;52.080;4.662;2023-07-22T10:03:19;19.72;71.86
78315;SHT31;68596;52.080;4.662;2023-07-22T10:06:05;19.68;71.87
78315;SHT31;68596;52.080;4.662;2023-07-22T10:08:51;19.64;72.25
78315;SHT31;68596;52.080;4.662;2023-07-22T10:11:35;19.57;72.23
78315;SHT31;68596;52.080;4.662;2023-07-22T10:14:20;19.50;72.40
78315;SHT31;68596;52.080;4.662;2023-07-22T10:17:06;19.41;72.78
78315;SHT31;68596;52.080;4.662;2023-07-22T10:19:52;19.38;72.82
78315;SHT31;68596;52.080;4.662;2023-07-22T10:22:37;19.32;73.16
78315;SHT31;68596;52.080;4.662;2023-07-22T10:25:23;19.31;73.43
78315;SHT31;68596;52.080;4.662;2023-07-22T10:28:08;19.31;73.70
78315;SHT31;68596;52.080;4.662;2023-07-22T10:30:52;19.34;73.49
78315;SHT31;68596;52.080;4.662;2023-07-22T10:33:37;19.31;73.56
78315;SHT31;68596;52.080;4.662;2023-07-22T10:36:21;19.31;73.62
78315;SHT31;68596;52.080;4.662;2023-07-22T10:39:27;19.31;73.57
78315;SHT31;68596;52.080;4.662;2023-07-22T10:42:24;19.31;73.56
78315;SHT31;68596;52.080;4.662;2023-07-22T10:45:29;19.31;73.57
78315;SHT31;68596;52.080;4.662;2023-07-22T10:48:14;19.31;73.65
78315;SHT31;68596;52.080;4.662;2023-07-22T10:51:05;19.32;73.68
78315;SHT31;68596;52.080;4.662;2023-07-22T10:53:49;19.39;73.56
78315;SHT31;68596;52.080;4.662;2023-07-22T10:56:34;19.43;73.97
78315;SHT31;68596;52.080;4.662;2023-07-22T10:59:26;19.50;73.41
78315;SHT31;68596;52.080;4.662;2023-07-22T11:02:26;19.57;73.57
78315;SHT31;68596;52.080;4.662;2023-07-22T11:05:11;19.64;73.08
78315;SHT31;68596;52.080;4.662;2023-07-22T11:08:03;19.71;72.87
78315;SHT31;68596;52.080;4.662;2023-07-22T11:10:54;19.79;72.89
78315;SHT31;68596;52.080;4.662;2023-07-22T11:13:41;19.85;72.01
78315;SHT31;68596;52.080;4.662;2023-07-22T11:16:28;19.93;70.66
78315;SHT31;68596;52.080;4.662;2023-07-22T11:19:14;19.98;71.21
78315;SHT31;68596;52.080;4.662;2023-07-22T11:22:00;20.06;71.48
78315;SHT31;68596;52.080;4.662;2023-07-22T11:24:45;20.15;70.77
78315;SHT31;68596;52.080;4.662;2023-07-22T11:27:29;20.26;71.35
78315;SHT31;68596;52.080;4.662;2023-07-22T11:30:16;20.34;70.86
78315;SHT31;68596;52.080;4.662;2023-07-22T11:33:00;20.40;70.11
78315;SHT31;68596;52.080;4.662;2023-07-22T11:35:44;20.49;69.42
78315;SHT31;68596;52.080;4.662;2023-07-22T11:38:29;20.53;69.68
78315;SHT31;68596;52.080;4.662;2023-07-22T11:41:13;20.59;69.50
78315;SHT31;68596;52.080;4.662;2023-07-22T11:44:00;20.63;69.17
78315;SHT31;68596;52.080;4.662;2023-07-22T11:46:49;20.64;68.63
78315;SHT31;68596;52.080;4.662;2023-07-22T11:49:48;20.67;68.28
78315;SHT31;68596;52.080;4.662;2023-07-22T11:52:33;20.69;67.44
78315;SHT31;68596;52.080;4.662;2023-07-22T11:55:22;20.70;68.14
78315;SHT31;68596;52.080;4.662;2023-07-22T11:58:08;20.63;67.97
78315;SHT31;68596;52.080;4.662;2023-07-22T12:01:05;20.61;67.45
78315;SHT31;68596;52.080;4.662;2023-07-22T12:03:55;20.57;66.80
78315;SHT31;68596;52.080;4.662;2023-07-22T12:06:41;20.56;67.24
78315;SHT31;68596;52.080;4.662;2023-07-22T12:09:26;20.51;67.08
78315;SHT31;68596;52.080;4.662;2023-07-22T12:12:10;20.49;66.13
78315;SHT31;68596;52.080;4.662;2023-07-22T12:14:54;20.46;66.71
78315;SHT31;68596;52.080;4.662;2023-07-22T12:17:56;20.40;67.87
78315;SHT31;68596;52.080;4.662;2023-07-22T12:20:40;20.34;67.05
78315;SHT31;68596;52.080;4.662;2023-07-22T12:23:24;20.32;66.94
78315;SHT31;68596;52.080;4.662;2023-07-22T12:26:08;20.30;67.56
78315;SHT31;68596;52.080;4.662;2023-07-22T12:28:52;20.26;67.45
78315;SHT31;68596;52.080;4.662;2023-07-22T12:31:37;20.28;67.06
78315;SHT31;68596;52.080;4.662;2023-07-22T12:34:21;20.23;67.21
78315;SHT31;68596;52.080;4.662;2023-07-22T12:37:05;20.19;66.93
78315;SHT31;68596;52.080;4.662;2023-07-22T12:39:49;20.16;66.52
78315;SHT31;68596;52.080;4.662;2023-07-22T12:42:34;20.13;67.54
78315;SHT31;68596;52.080;4.662;2023-07-22T12:45:19;20.09;67.01
78315;SHT31;68596;52.080;4.662;2023-07-22T12:48:03;20.08;67.16
78315;SHT31;68596;52.080;4.662;2023-07-22T12:50:49;20.06;67.23
78315;SHT31;68596;52.080;4.662;2023-07-22T12:53:33;20.08;65.47
78315;SHT31;68596;52.080;4.662;2023-07-22T12:56:17;20.05;65.31
78315;SHT31;68596;52.080;4.662;2023-07-22T12:59:01;20.00;64.95
78315;SHT31;68596;52.080;4.662;2023-07-22T13:01:45;19.98;65.29
78315;SHT31;68596;52.080;4.662;2023-07-22T13:04:29;19.98;65.04
78315;SHT31;68596;52.080;4.662;2023-07-22T13:07:13;19.95;65.89
78315;SHT31;68596;52.080;4.662;2023-07-22T13:09:58;19.99;66.74
78315;SHT31;68596;52.080;4.662;2023-07-22T13:12:44;19.99;66.01
78315;SHT31;68596;52.080;4.662;2023-07-22T13:15:28;20.02;66.38
78315;SHT31;68596;52.080;4.662;2023-07-22T13:18:12;20.04;66.15
78315;SHT31;68596;52.080;4.662;2023-07-22T13:20:57;20.04;66.48
78315;SHT31;68596;52.080;4.662;2023-07-22T13:23:41;20.04;66.09
78315;SHT31;68596;52.080;4.662;2023-07-22T13:26:25;20.05;65.89
78315;SHT31;68596;52.080;4.662;2023-07-22T13:29:09;20.06;66.13
78315;SHT31;68596;52.080;4.662;2023-07-22T13:31:53;20.05;66.00
78315;SHT31;68596;52.080;4.662;2023-07-22T13:34:37;20.06;66.03
78315;SHT31;68596;52.080;4.662;2023-07-22T13:37:22;20.06;65.86
78315;SHT31;68596;52.080;4.662;2023-07-22T13:40:06;20.06;65.70
78315;SHT31;68596;52.080;4.662;2023-07-22T13:42:55;20.09;65.85
78315;SHT31;68596;52.080;4.662;2023-07-22T13:45:39;20.10;65.10
78315;SHT31;68596;52.080;4.662;2023-07-22T13:48:23;20.10;65.03
78315;SHT31;68596;52.080;4.662;2023-07-22T13:51:07;20.12;65.85
78315;SHT31;68596;52.080;4.662;2023-07-22T13:53:51;20.18;65.49
78315;SHT31;68596;52.080;4.662;2023-07-22T13:56:38;20.20;65.65
78315;SHT31;68596;52.080;4.662;2023-07-22T13:59:22;20.22;65.34
78315;SHT31;68596;52.080;4.662;2023-07-22T14:02:06;20.25;64.80
78315;SHT31;68596;52.080;4.662;2023-07-22T14:04:50;20.26;65.21
78315;SHT31;68596;52.080;4.662;2023-07-22T14:07:36;20.28;65.29
78315;SHT31;68596;52.080;4.662;2023-07-22T14:10:20;20.30;64.80
78315;SHT31;68596;52.080;4.662;2023-07-22T14:13:04;20.32;65.00
78315;SHT31;68596;52.080;4.662;2023-07-22T14:15:48;20.34;64.60
78315;SHT31;68596;52.080;4.662;2023-07-22T14:18:32;20.32;65.32
78315;SHT31;68596;52.080;4.662;2023-07-22T14:21:17;20.33;65.39
78315;SHT31;68596;52.080;4.662;2023-07-22T14:24:01;20.29;65.76
78315;SHT31;68596;52.080;4.662;2023-07-22T14:26:45;20.29;65.42
78315;SHT31;68596;52.080;4.662;2023-07-22T14:29:31;20.30;65.32
78315;SHT31;68596;52.080;4.662;2023-07-22T14:32:16;20.29;65.98
78315;SHT31;68596;52.080;4.662;2023-07-22T14:35:00;20.25;66.13
78315;SHT31;68596;52.080;4.662;2023-07-22T14:37:44;20.23;65.73
78315;SHT31;68596;52.080;4.662;2023-07-22T14:40:29;20.23;66.08
78315;SHT31;68596;52.080;4.662;2023-07-22T14:43:14;20.22;66.02
78315;SHT31;68596;52.080;4.662;2023-07-22T14:45:58;20.20;65.76
78315;SHT31;68596;52.080;4.662;2023-07-22T14:48:42;20.19;66.17
78315;SHT31;68596;52.080;4.662;2023-07-22T14:51:26;20.20;65.93
78315;SHT31;68596;52.080;4.662;2023-07-22T14:54:11;20.20;65.65
78315;SHT31;68596;52.080;4.662;2023-07-22T14:56:55;20.18;66.16
78315;SHT31;68596;52.080;4.662;2023-07-22T14:59:39;20.18;66.12
78315;SHT31;68596;52.080;4.662;2023-07-22T15:02:23;20.18;66.29
78315;SHT31;68596;52.080;4.662;2023-07-22T15:05:07;20.20;66.24
78315;SHT31;68596;52.080;4.662;2023-07-22T15:07:52;20.22;66.25
78315;SHT31;68596;52.080;4.662;2023-07-22T15:10:36;20.25;65.77
78315;SHT31;68596;52.080;4.662;2023-07-22T15:13:20;20.22;65.98
78315;SHT31;68596;52.080;4.662;2023-07-22T15:16:04;20.26;66.26
78315;SHT31;68596;52.080;4.662;2023-07-22T15:18:48;20.29;65.88
78315;SHT31;68596;52.080;4.662;2023-07-22T15:21:33;20.32;66.06
78315;SHT31;68596;52.080;4.662;2023-07-22T15:24:17;20.33;65.79
78315;SHT31;68596;52.080;4.662;2023-07-22T15:27:01;20.33;65.64
78315;SHT31;68596;52.080;4.662;2023-07-22T15:29:45;20.36;65.70
78315;SHT31;68596;52.080;4.662;2023-07-22T15:32:29;20.34;65.66
78315;SHT31;68596;52.080;4.662;2023-07-22T15:35:14;20.39;65.42
78315;SHT31;68596;52.080;4.662;2023-07-22T15:37:58;20.43;65.52
78315;SHT31;68596;52.080;4.662;2023-07-22T15:40:42;20.44;65.09
78315;SHT31;68596;52.080;4.662;2023-07-22T15:43:26;20.44;64.88
78315;SHT31;68596;52.080;4.662;2023-07-22T15:46:10;20.44;65.01
78315;SHT31;68596;52.080;4.662;2023-07-22T15:48:54;20.44;64.20
78315;SHT31;68596;52.080;4.662;2023-07-22T15:51:38;20.47;64.51
78315;SHT31;68596;52.080;4.662;2023-07-22T15:54:22;20.47;65.26
78315;SHT31;68596;52.080;4.662;2023-07-22T15:57:06;20.46;64.67
78315;SHT31;68596;52.080;4.662;2023-07-22T15:59:51;20.47;64.98
78315;SHT31;68596;52.080;4.662;2023-07-22T16:02:35;20.49;65.17
78315;SHT31;68596;52.080;4.662;2023-07-22T16:05:19;20.49;65.48
78315;SHT31;68596;52.080;4.662;2023-07-22T16:08:04;20.44;64.83
78315;SHT31;68596;52.080;4.662;2023-07-22T16:10:49;20.44;65.23
78315;SHT31;68596;52.080;4.662;2023-07-22T16:13:33;20.47;64.96
78315;SHT31;68596;52.080;4.662;2023-07-22T16:16:17;20.46;65.33
78315;SHT31;68596;52.080;4.662;2023-07-22T16:19:01;20.47;65.12
78315;SHT31;68596;52.080;4.662;2023-07-22T16:21:45;20.46;65.30
78315;SHT31;68596;52.080;4.662;2023-07-22T16:24:29;20.47;65.27
78315;SHT31;68596;52.080;4.662;2023-07-22T16:27:13;20.46;65.22
78315;SHT31;68596;52.080;4.662;2023-07-22T16:29:57;20.47;64.98
78315;SHT31;68596;52.080;4.662;2023-07-22T16:32:41;20.44;65.38
78315;SHT31;68596;52.080;4.662;2023-07-22T16:35:26;20.43;65.37
78315;SHT31;68596;52.080;4.662;2023-07-22T16:38:13;20.43;65.67
78315;SHT31;68596;52.080;4.662;2023-07-22T16:40:57;20.44;65.61
78315;SHT31;68596;52.080;4.662;2023-07-22T16:43:41;20.44;65.60
78315;SHT31;68596;52.080;4.662;2023-07-22T16:46:25;20.47;65.36
78315;SHT31;68596;52.080;4.662;2023-07-22T16:49:10;20.47;65.22
78315;SHT31;68596;52.080;4.662;2023-07-22T16:51:57;20.44;65.25
78315;SHT31;68596;52.080;4.662;2023-07-22T16:54:41;20.47;65.57
78315;SHT31;68596;52.080;4.662;2023-07-22T16:57:26;20.50;65.51
78315;SHT31;68596;52.080;4.662;2023-07-22T17:00:10;20.49;65.43
78315;SHT31;68596;52.080;4.662;2023-07-22T17:02:55;20.50;65.45
78315;SHT31;68596;52.080;4.662;2023-07-22T17:05:39;20.46;64.61
78315;SHT31;68596;52.080;4.662;2023-07-22T17:08:23;20.47;65.13
78315;SHT31;68596;52.080;4.662;2023-07-22T17:11:07;20.47;64.52
78315;SHT31;68596;52.080;4.662;2023-07-22T17:13:52;20.47;64.58
78315;SHT31;68596;52.080;4.662;2023-07-22T17:16:36;20.46;64.67
78315;SHT31;68596;52.080;4.662;2023-07-22T17:19:20;20.49;64.57
78315;SHT31;68596;52.080;4.662;2023-07-22T17:22:04;20.44;64.40